Terminal Aerodrome Forecast
Issued by NWS Tuscon, AZ

Home | Current Version | Previous Version | Text Only | Print | Product List | Glossary On
Versions: 1 2 3 4 5 6 7 8 9 10 11 12 13 14 15
105
FTUS45 KTWC 230333 AAC
TAFTUS
TAF AMD
KTUS 230333Z 2304/2324 22008KT P6SM VCSH BKN100
      TEMPO 2304/2306 P6SM -TSRA SCT070 BKN090CB
     FM231000 16011KT P6SM SCT100 BKN140
     FM231700 17007KT P6SM SCT080 BKN120
     FM232100 22008KT P6SM VCSH BKN070 BKN110=

USA.gov is the U.S. government's official web portal to all federal, state and local government web resources and services.